Terminal Aerodrome Forecast
Issued by NWS

Home | Current Version | Previous Version | Text Only | Print | Product List | Glossary On
Versions: 1 2 3 4 5 6 7 8 9 10 11 12
000
FTUS46 KMTR 231722
TAFSJC
TAF
KSJC 231722Z 2318/2418 31008KT P6SM SKC
     FM232000 30011KT P6SM SKC
     FM240400 30006KT P6SM SKC
     FM241100 VRB04KT P6SM BKN010
     FM241600 29003KT P6SM BKN180=

USA.gov is the U.S. government's official web portal to all federal, state and local government web resources and services.